sensor_id;sensor_type;location;lat;lon;timestamp;temperature;humidity
1277;DHT22;631;51.024;13.826;2023-02-27T00:02:13;-2.30;99.90
1277;DHT22;631;51.024;13.826;2023-02-27T00:04:39;-2.30;99.90
1277;DHT22;631;51.024;13.826;2023-02-27T00:07:05;-2.30;99.90
1277;DHT22;631;51.024;13.826;2023-02-27T00:09:31;-2.30;99.90
1277;DHT22;631;51.024;13.826;2023-02-27T00:11:57;-2.40;99.90
1277;DHT22;631;51.024;13.826;2023-02-27T00:14:22;-2.40;99.90
1277;DHT22;631;51.024;13.826;2023-02-27T00:16:49;-2.40;99.90
1277;DHT22;631;51.024;13.826;2023-02-27T00:19:14;-2.40;99.90
1277;DHT22;631;51.024;13.826;2023-02-27T00:21:40;-2.40;99.90
1277;DHT22;631;51.024;13.826;2023-02-27T00:24:06;-2.50;99.90
1277;DHT22;631;51.024;13.826;2023-02-27T00:26:32;-2.50;99.90
1277;DHT22;631;51.024;13.826;2023-02-27T00:28:57;-2.50;99.90
1277;DHT22;631;51.024;13.826;2023-02-27T00:31:23;-2.50;99.90
1277;DHT22;631;51.024;13.826;2023-02-27T00:33:48;-2.50;99.90
1277;DHT22;631;51.024;13.826;2023-02-27T00:36:14;-2.60;99.90
1277;DHT22;631;51.024;13.826;2023-02-27T00:38:40;-2.60;99.90
1277;DHT22;631;51.024;13.826;2023-02-27T00:41:05;-2.70;99.90
1277;DHT22;631;51.024;13.826;2023-02-27T00:43:31;-2.70;99.90
1277;DHT22;631;51.024;13.826;2023-02-27T00:45:57;-2.60;99.90
1277;DHT22;631;51.024;13.826;2023-02-27T00:48:22;-2.70;99.90
1277;DHT22;631;51.024;13.826;2023-02-27T00:50:49;-2.70;99.90
1277;DHT22;631;51.024;13.826;2023-02-27T00:53:15;-2.80;99.90
1277;DHT22;631;51.024;13.826;2023-02-27T00:55:40;-2.70;99.90
1277;DHT22;631;51.024;13.826;2023-02-27T00:58:06;-2.70;99.90
1277;DHT22;631;51.024;13.826;2023-02-27T01:00:31;-2.70;99.90
1277;DHT22;631;51.024;13.826;2023-02-27T01:02:57;-2.70;99.90
1277;DHT22;631;51.024;13.826;2023-02-27T01:05:23;-2.70;99.90
1277;DHT22;631;51.024;13.826;2023-02-27T01:07:48;-2.70;99.90
1277;DHT22;631;51.024;13.826;2023-02-27T01:10:14;-2.70;99.90
1277;DHT22;631;51.024;13.826;2023-02-27T01:12:40;-2.70;99.90
1277;DHT22;631;51.024;13.826;2023-02-27T01:15:07;-2.70;99.90
1277;DHT22;631;51.024;13.826;2023-02-27T01:17:33;-2.60;99.90
1277;DHT22;631;51.024;13.826;2023-02-27T01:19:59;-2.60;99.90
1277;DHT22;631;51.024;13.826;2023-02-27T01:22:24;-2.60;99.90
1277;DHT22;631;51.024;13.826;2023-02-27T01:24:50;-2.60;99.90
1277;DHT22;631;51.024;13.826;2023-02-27T01:27:16;-2.50;99.90
1277;DHT22;631;51.024;13.826;2023-02-27T01:29:41;-2.50;99.90
1277;DHT22;631;51.024;13.826;2023-02-27T01:32:07;-2.50;99.90
1277;DHT22;631;51.024;13.826;2023-02-27T01:34:33;-2.50;99.90
1277;DHT22;631;51.024;13.826;2023-02-27T01:36:58;-2.50;99.90
1277;DHT22;631;51.024;13.826;2023-02-27T01:39:24;-2.50;99.90
1277;DHT22;631;51.024;13.826;2023-02-27T01:41:51;-2.60;99.90
1277;DHT22;631;51.024;13.826;2023-02-27T01:44:17;-2.60;99.90
1277;DHT22;631;51.024;13.826;2023-02-27T01:46:43;-2.80;99.90
1277;DHT22;631;51.024;13.826;2023-02-27T01:49:19;-2.90;99.90
1277;DHT22;631;51.024;13.826;2023-02-27T01:52:12;-2.90;99.90
1277;DHT22;631;51.024;13.826;2023-02-27T01:54:40;-2.90;99.90
1277;DHT22;631;51.024;13.826;2023-02-27T01:57:09;-3.00;99.90
1277;DHT22;631;51.024;13.826;2023-02-27T01:59:38;-2.90;99.90
1277;DHT22;631;51.024;13.826;2023-02-27T02:02:13;-3.00;99.90
1277;DHT22;631;51.024;13.826;2023-02-27T02:04:41;-3.00;99.90
1277;DHT22;631;51.024;13.826;2023-02-27T02:07:11;-3.10;99.90
1277;DHT22;631;51.024;13.826;2023-02-27T02:09:44;-3.10;99.90
1277;DHT22;631;51.024;13.826;2023-02-27T02:12:14;-3.10;99.90
1277;DHT22;631;51.024;13.826;2023-02-27T02:14:40;-3.10;99.90
1277;DHT22;631;51.024;13.826;2023-02-27T02:23:19;-3.30;99.90
1277;DHT22;631;51.024;13.826;2023-02-27T02:26:11;-3.30;99.90
1277;DHT22;631;51.024;13.826;2023-02-27T02:32:05;-3.30;99.90
1277;DHT22;631;51.024;13.826;2023-02-27T02:37:37;-3.20;99.90
1277;DHT22;631;51.024;13.826;2023-02-27T02:46:12;-3.10;99.90
1277;DHT22;631;51.024;13.826;2023-02-27T02:48:56;-3.10;99.90
1277;DHT22;631;51.024;13.826;2023-02-27T02:51:29;-3.10;99.90
1277;DHT22;631;51.024;13.826;2023-02-27T02:56:34;-2.90;99.90
1277;DHT22;631;51.024;13.826;2023-02-27T03:01:42;-2.70;99.90
1277;DHT22;631;51.024;13.826;2023-02-27T03:04:14;-2.70;99.90
1277;DHT22;631;51.024;13.826;2023-02-27T03:06:46;-2.70;99.90
1277;DHT22;631;51.024;13.826;2023-02-27T03:11:42;-2.50;99.90
1277;DHT22;631;51.024;13.826;2023-02-27T03:14:14;-2.50;99.90
1277;DHT22;631;51.024;13.826;2023-02-27T03:16:44;-2.40;99.90
1277;DHT22;631;51.024;13.826;2023-02-27T03:19:13;-2.40;99.90
1277;DHT22;631;51.024;13.826;2023-02-27T03:21:54;-2.30;99.90
1277;DHT22;631;51.024;13.826;2023-02-27T03:24:26;-2.30;99.90
1277;DHT22;631;51.024;13.826;2023-02-27T03:26:54;-2.20;99.90
1277;DHT22;631;51.024;13.826;2023-02-27T03:29:34;-2.20;99.90
1277;DHT22;631;51.024;13.826;2023-02-27T03:32:12;-2.10;99.90
1277;DHT22;631;51.024;13.826;2023-02-27T03:34:41;-2.00;99.90
1277;DHT22;631;51.024;13.826;2023-02-27T03:37:17;-2.00;99.90
1277;DHT22;631;51.024;13.826;2023-02-27T03:42:30;-1.90;99.90
1277;DHT22;631;51.024;13.826;2023-02-27T03:45:15;-1.90;99.90
1277;DHT22;631;51.024;13.826;2023-02-27T03:47:43;-1.80;99.90
1277;DHT22;631;51.024;13.826;2023-02-27T03:50:10;-1.80;99.90
1277;DHT22;631;51.024;13.826;2023-02-27T03:52:36;-1.80;99.90
1277;DHT22;631;51.024;13.826;2023-02-27T03:55:06;-1.70;99.90
1277;DHT22;631;51.024;13.826;2023-02-27T03:57:35;-1.70;99.90
1277;DHT22;631;51.024;13.826;2023-02-27T04:00:02;-1.60;99.90
1277;DHT22;631;51.024;13.826;2023-02-27T04:02:30;-1.60;99.90
1277;DHT22;631;51.024;13.826;2023-02-27T04:04:56;-1.60;99.90
1277;DHT22;631;51.024;13.826;2023-02-27T04:10:18;-1.60;99.90
1277;DHT22;631;51.024;13.826;2023-02-27T04:15:45;-1.50;99.90
1277;DHT22;631;51.024;13.826;2023-02-27T04:21:31;-1.50;99.90
1277;DHT22;631;51.024;13.826;2023-02-27T04:35:04;-1.50;99.90
1277;DHT22;631;51.024;13.826;2023-02-27T04:37:36;-1.40;99.90
1277;DHT22;631;51.024;13.826;2023-02-27T04:40:09;-1.40;99.90
1277;DHT22;631;51.024;13.826;2023-02-27T04:42:46;-1.40;99.90
1277;DHT22;631;51.024;13.826;2023-02-27T04:45:16;-1.40;99.90
1277;DHT22;631;51.024;13.826;2023-02-27T04:48:12;-1.40;99.90
1277;DHT22;631;51.024;13.826;2023-02-27T04:50:38;-1.40;99.90
1277;DHT22;631;51.024;13.826;2023-02-27T04:56:13;-1.40;99.90
1277;DHT22;631;51.024;13.826;2023-02-27T04:58:44;-1.40;99.90
1277;DHT22;631;51.024;13.826;2023-02-27T05:01:38;-1.30;99.90
1277;DHT22;631;51.024;13.826;2023-02-27T05:04:02;-1.30;99.90
1277;DHT22;631;51.024;13.826;2023-02-27T05:06:32;-1.30;99.90
1277;DHT22;631;51.024;13.826;2023-02-27T05:09:05;-1.30;99.90
1277;DHT22;631;51.024;13.826;2023-02-27T05:19:38;-1.20;99.90
1277;DHT22;631;51.024;13.826;2023-02-27T05:24:54;-1.20;99.90
1277;DHT22;631;51.024;13.826;2023-02-27T05:32:41;-1.20;99.90
1277;DHT22;631;51.024;13.826;2023-02-27T05:35:28;-1.10;99.90
1277;DHT22;631;51.024;13.826;2023-02-27T05:40:34;-1.20;99.90
1277;DHT22;631;51.024;13.826;2023-02-27T05:43:07;-1.20;99.90
1277;DHT22;631;51.024;13.826;2023-02-27T05:45:36;-1.20;99.90
1277;DHT22;631;51.024;13.826;2023-02-27T05:48:37;-1.20;99.90
1277;DHT22;631;51.024;13.826;2023-02-27T05:51:06;-1.20;99.90
1277;DHT22;631;51.024;13.826;2023-02-27T05:53:36;-1.20;99.90
1277;DHT22;631;51.024;13.826;2023-02-27T05:56:05;-1.20;99.90
1277;DHT22;631;51.024;13.826;2023-02-27T05:58:42;-1.20;99.90
1277;DHT22;631;51.024;13.826;2023-02-27T06:01:10;-1.20;99.90
1277;DHT22;631;51.024;13.826;2023-02-27T06:03:38;-1.20;99.90
1277;DHT22;631;51.024;13.826;2023-02-27T06:06:07;-1.20;99.90
1277;DHT22;631;51.024;13.826;2023-02-27T06:08:34;-1.20;99.90
1277;DHT22;631;51.024;13.826;2023-02-27T06:10:59;-1.10;99.90
1277;DHT22;631;51.024;13.826;2023-02-27T06:13:25;-1.10;99.90
1277;DHT22;631;51.024;13.826;2023-02-27T06:15:51;-1.20;99.90
1277;DHT22;631;51.024;13.826;2023-02-27T06:18:17;-1.20;99.90
1277;DHT22;631;51.024;13.826;2023-02-27T06:20:44;-1.20;99.90
1277;DHT22;631;51.024;13.826;2023-02-27T06:23:10;-1.20;99.90
1277;DHT22;631;51.024;13.826;2023-02-27T06:25:36;-1.20;99.90
1277;DHT22;631;51.024;13.826;2023-02-27T06:28:03;-1.10;99.90
1277;DHT22;631;51.024;13.826;2023-02-27T06:30:29;-1.10;99.90
1277;DHT22;631;51.024;13.826;2023-02-27T06:32:54;-1.10;99.90
1277;DHT22;631;51.024;13.826;2023-02-27T06:35:22;-1.10;99.90
1277;DHT22;631;51.024;13.826;2023-02-27T06:37:48;-1.10;99.90
1277;DHT22;631;51.024;13.826;2023-02-27T06:40:14;-1.00;99.90
1277;DHT22;631;51.024;13.826;2023-02-27T06:42:41;-1.00;99.90
1277;DHT22;631;51.024;13.826;2023-02-27T06:45:08;-1.00;99.90
1277;DHT22;631;51.024;13.826;2023-02-27T06:47:34;-1.00;99.90
1277;DHT22;631;51.024;13.826;2023-02-27T06:50:00;-0.90;99.90
1277;DHT22;631;51.024;13.826;2023-02-27T06:52:26;-0.90;99.90
1277;DHT22;631;51.024;13.826;2023-02-27T06:54:52;-0.80;99.90
1277;DHT22;631;51.024;13.826;2023-02-27T06:57:17;-0.80;99.90
1277;DHT22;631;51.024;13.826;2023-02-27T06:59:43;-0.70;99.90
1277;DHT22;631;51.024;13.826;2023-02-27T07:02:13;-0.60;99.90
1277;DHT22;631;51.024;13.826;2023-02-27T07:04:39;-0.60;99.90
1277;DHT22;631;51.024;13.826;2023-02-27T07:07:05;-0.50;99.90
1277;DHT22;631;51.024;13.826;2023-02-27T07:09:31;-0.40;99.90
1277;DHT22;631;51.024;13.826;2023-02-27T07:11:56;-0.40;99.90
1277;DHT22;631;51.024;13.826;2023-02-27T07:14:22;-0.40;99.90
1277;DHT22;631;51.024;13.826;2023-02-27T07:16:48;-0.30;99.90
1277;DHT22;631;51.024;13.826;2023-02-27T07:19:22;-0.20;99.90
1277;DHT22;631;51.024;13.826;2023-02-27T07:21:48;-0.10;99.90
1277;DHT22;631;51.024;13.826;2023-02-27T07:24:14;0.00;99.90
1277;DHT22;631;51.024;13.826;2023-02-27T07:26:40;0.00;99.90
1277;DHT22;631;51.024;13.826;2023-02-27T07:29:06;0.10;99.90
1277;DHT22;631;51.024;13.826;2023-02-27T07:31:32;0.20;99.90
1277;DHT22;631;51.024;13.826;2023-02-27T07:33:57;0.20;99.90
1277;DHT22;631;51.024;13.826;2023-02-27T07:36:23;0.30;99.90
1277;DHT22;631;51.024;13.826;2023-02-27T07:38:49;0.40;99.90
1277;DHT22;631;51.024;13.826;2023-02-27T07:41:15;0.40;99.90
1277;DHT22;631;51.024;13.826;2023-02-27T07:43:41;0.50;99.90
1277;DHT22;631;51.024;13.826;2023-02-27T07:46:06;0.60;99.90
1277;DHT22;631;51.024;13.826;2023-02-27T07:48:32;0.70;99.90
1277;DHT22;631;51.024;13.826;2023-02-27T07:50:59;0.80;99.90
1277;DHT22;631;51.024;13.826;2023-02-27T07:53:24;0.80;99.90
1277;DHT22;631;51.024;13.826;2023-02-27T07:55:50;0.90;99.90
1277;DHT22;631;51.024;13.826;2023-02-27T07:58:16;1.00;99.90
1277;DHT22;631;51.024;13.826;2023-02-27T08:00:42;1.10;99.90
1277;DHT22;631;51.024;13.826;2023-02-27T08:03:08;1.20;99.90
1277;DHT22;631;51.024;13.826;2023-02-27T08:05:34;1.40;99.90
1277;DHT22;631;51.024;13.826;2023-02-27T08:08:00;1.50;99.90
1277;DHT22;631;51.024;13.826;2023-02-27T08:10:26;1.50;99.90
1277;DHT22;631;51.024;13.826;2023-02-27T08:12:51;1.60;99.90
1277;DHT22;631;51.024;13.826;2023-02-27T08:15:17;1.60;99.90
1277;DHT22;631;51.024;13.826;2023-02-27T08:17:44;1.70;99.90
1277;DHT22;631;51.024;13.826;2023-02-27T08:20:10;1.70;99.90
1277;DHT22;631;51.024;13.826;2023-02-27T08:22:37;1.80;99.90
1277;DHT22;631;51.024;13.826;2023-02-27T08:25:04;1.80;99.90
1277;DHT22;631;51.024;13.826;2023-02-27T08:27:35;1.80;99.90
1277;DHT22;631;51.024;13.826;2023-02-27T08:30:01;1.90;99.90
1277;DHT22;631;51.024;13.826;2023-02-27T08:32:26;2.00;99.90
1277;DHT22;631;51.024;13.826;2023-02-27T08:34:52;2.00;99.90
1277;DHT22;631;51.024;13.826;2023-02-27T08:37:18;2.00;99.90
1277;DHT22;631;51.024;13.826;2023-02-27T08:39:44;2.10;99.90
1277;DHT22;631;51.024;13.826;2023-02-27T08:42:09;2.20;99.90
1277;DHT22;631;51.024;13.826;2023-02-27T08:44:35;2.20;99.90
1277;DHT22;631;51.024;13.826;2023-02-27T08:47:01;2.30;99.90
1277;DHT22;631;51.024;13.826;2023-02-27T08:49:26;2.40;99.90
1277;DHT22;631;51.024;13.826;2023-02-27T08:51:52;2.40;99.90
1277;DHT22;631;51.024;13.826;2023-02-27T08:54:18;2.70;99.90
1277;DHT22;631;51.024;13.826;2023-02-27T08:56:45;2.70;99.90
1277;DHT22;631;51.024;13.826;2023-02-27T08:59:11;2.80;99.90
1277;DHT22;631;51.024;13.826;2023-02-27T09:01:37;2.90;99.90
1277;DHT22;631;51.024;13.826;2023-02-27T09:04:04;3.00;99.90
1277;DHT22;631;51.024;13.826;2023-02-27T09:06:30;3.30;99.90
1277;DHT22;631;51.024;13.826;2023-02-27T09:08:57;3.40;99.90
1277;DHT22;631;51.024;13.826;2023-02-27T09:11:23;3.60;99.90
1277;DHT22;631;51.024;13.826;2023-02-27T09:13:49;3.60;99.90
1277;DHT22;631;51.024;13.826;2023-02-27T09:16:16;3.60;99.90
1277;DHT22;631;51.024;13.826;2023-02-27T09:18:42;3.70;99.90
1277;DHT22;631;51.024;13.826;2023-02-27T09:21:08;3.90;99.90
1277;DHT22;631;51.024;13.826;2023-02-27T09:23:34;4.10;99.90
1277;DHT22;631;51.024;13.826;2023-02-27T09:26:00;4.40;99.90
1277;DHT22;631;51.024;13.826;2023-02-27T09:28:26;4.60;99.90
1277;DHT22;631;51.024;13.826;2023-02-27T09:30:52;4.90;99.90
1277;DHT22;631;51.024;13.826;2023-02-27T09:33:17;5.10;99.90
1277;DHT22;631;51.024;13.826;2023-02-27T09:35:43;5.20;99.90
1277;DHT22;631;51.024;13.826;2023-02-27T09:38:09;5.10;99.90
1277;DHT22;631;51.024;13.826;2023-02-27T09:40:40;4.90;99.90
1277;DHT22;631;51.024;13.826;2023-02-27T09:43:18;4.80;99.90
1277;DHT22;631;51.024;13.826;2023-02-27T09:45:46;4.80;99.90
1277;DHT22;631;51.024;13.826;2023-02-27T09:48:33;4.30;99.90
1277;DHT22;631;51.024;13.826;2023-02-27T09:51:01;4.10;99.90
1277;DHT22;631;51.024;13.826;2023-02-27T09:53:35;3.70;99.90
1277;DHT22;631;51.024;13.826;2023-02-27T09:59:28;3.40;99.90
1277;DHT22;631;51.024;13.826;2023-02-27T10:10:30;4.00;99.90
1277;DHT22;631;51.024;13.826;2023-02-27T10:15:49;4.40;99.90
1277;DHT22;631;51.024;13.826;2023-02-27T10:18:17;4.70;99.90
1277;DHT22;631;51.024;13.826;2023-02-27T10:21:03;4.90;99.90
1277;DHT22;631;51.024;13.826;2023-02-27T10:26:00;4.90;99.90
1277;DHT22;631;51.024;13.826;2023-02-27T10:28:26;5.10;99.90
1277;DHT22;631;51.024;13.826;2023-02-27T10:30:54;5.00;99.90
1277;DHT22;631;51.024;13.826;2023-02-27T10:33:25;4.90;99.90
1277;DHT22;631;51.024;13.826;2023-02-27T10:35:51;4.90;99.90
1277;DHT22;631;51.024;13.826;2023-02-27T10:38:31;4.80;99.90
1277;DHT22;631;51.024;13.826;2023-02-27T10:40:58;4.70;99.90
1277;DHT22;631;51.024;13.826;2023-02-27T10:43:25;4.80;99.90
1277;DHT22;631;51.024;13.826;2023-02-27T10:45:51;4.80;99.90
1277;DHT22;631;51.024;13.826;2023-02-27T10:48:17;4.60;99.90
1277;DHT22;631;51.024;13.826;2023-02-27T10:50:46;4.50;99.90
1277;DHT22;631;51.024;13.826;2023-02-27T10:53:26;4.60;99.90
1277;DHT22;631;51.024;13.826;2023-02-27T10:56:03;4.80;99.90
1277;DHT22;631;51.024;13.826;2023-02-27T10:58:33;4.80;99.90
1277;DHT22;631;51.024;13.826;2023-02-27T11:01:01;4.90;99.90
1277;DHT22;631;51.024;13.826;2023-02-27T11:03:42;4.80;99.90
1277;DHT22;631;51.024;13.826;2023-02-27T11:06:23;4.80;99.90
1277;DHT22;631;51.024;13.826;2023-02-27T11:09:15;4.90;99.90
1277;DHT22;631;51.024;13.826;2023-02-27T11:11:42;4.90;99.90
1277;DHT22;631;51.024;13.826;2023-02-27T11:14:26;5.20;99.90
1277;DHT22;631;51.024;13.826;2023-02-27T11:16:57;5.10;99.90
1277;DHT22;631;51.024;13.826;2023-02-27T11:22:03;4.80;99.90
1277;DHT22;631;51.024;13.826;2023-02-27T11:24:29;4.80;99.90
1277;DHT22;631;51.024;13.826;2023-02-27T11:27:01;4.80;99.90
1277;DHT22;631;51.024;13.826;2023-02-27T11:29:33;4.90;99.90
1277;DHT22;631;51.024;13.826;2023-02-27T11:32:01;4.80;99.90
1277;DHT22;631;51.024;13.826;2023-02-27T11:37:09;5.00;99.90
1277;DHT22;631;51.024;13.826;2023-02-27T11:40:01;4.90;99.90
1277;DHT22;631;51.024;13.826;2023-02-27T11:42:32;5.20;99.90
1277;DHT22;631;51.024;13.826;2023-02-27T11:45:13;5.30;99.90
1277;DHT22;631;51.024;13.826;2023-02-27T11:47:52;5.20;99.90
1277;DHT22;631;51.024;13.826;2023-02-27T11:55:37;5.40;99.90
1277;DHT22;631;51.024;13.826;2023-02-27T11:58:18;5.40;99.90
1277;DHT22;631;51.024;13.826;2023-02-27T12:01:00;5.40;99.90
1277;DHT22;631;51.024;13.826;2023-02-27T12:03:49;5.50;99.90
1277;DHT22;631;51.024;13.826;2023-02-27T12:06:19;5.90;99.90
1277;DHT22;631;51.024;13.826;2023-02-27T12:09:01;6.10;99.90
1277;DHT22;631;51.024;13.826;2023-02-27T12:11:35;6.30;99.90
1277;DHT22;631;51.024;13.826;2023-02-27T12:16:40;6.60;99.00
1277;DHT22;631;51.024;13.826;2023-02-27T12:19:17;6.80;98.60
1277;DHT22;631;51.024;13.826;2023-02-27T12:22:29;6.80;97.70
1277;DHT22;631;51.024;13.826;2023-02-27T12:24:50;6.80;97.50
1277;DHT22;631;51.024;13.826;2023-02-27T12:27:22;6.60;96.00
1277;DHT22;631;51.024;13.826;2023-02-27T12:30:05;6.60;97.90
1277;DHT22;631;51.024;13.826;2023-02-27T12:32:37;6.70;97.00
1277;DHT22;631;51.024;13.826;2023-02-27T12:35:26;6.90;99.40
1277;DHT22;631;51.024;13.826;2023-02-27T12:37:54;7.20;97.50
1277;DHT22;631;51.024;13.826;2023-02-27T12:40:29;7.50;96.00
1277;DHT22;631;51.024;13.826;2023-02-27T12:42:59;7.60;94.60
1277;DHT22;631;51.024;13.826;2023-02-27T12:48:28;7.50;93.30
1277;DHT22;631;51.024;13.826;2023-02-27T12:54:02;7.40;92.50
1277;DHT22;631;51.024;13.826;2023-02-27T12:57:21;7.30;93.90
1277;DHT22;631;51.024;13.826;2023-02-27T13:04:59;7.90;89.50
1277;DHT22;631;51.024;13.826;2023-02-27T13:07:32;8.00;86.60
1277;DHT22;631;51.024;13.826;2023-02-27T13:10:25;7.90;89.20
1277;DHT22;631;51.024;13.826;2023-02-27T13:12:58;7.90;87.60
1277;DHT22;631;51.024;13.826;2023-02-27T13:15:53;8.00;84.60
1277;DHT22;631;51.024;13.826;2023-02-27T13:20:55;9.20;73.40
1277;DHT22;631;51.024;13.826;2023-02-27T13:23:30;9.60;70.70
1277;DHT22;631;51.024;13.826;2023-02-27T13:25:58;9.90;66.20
1277;DHT22;631;51.024;13.826;2023-02-27T13:28:26;10.00;62.00
1277;DHT22;631;51.024;13.826;2023-02-27T13:31:06;10.40;59.70
1277;DHT22;631;51.024;13.826;2023-02-27T13:36:39;10.70;54.90
1277;DHT22;631;51.024;13.826;2023-02-27T13:45:05;11.70;50.80
1277;DHT22;631;51.024;13.826;2023-02-27T13:47:49;12.30;49.50
1277;DHT22;631;51.024;13.826;2023-02-27T13:52:46;13.30;43.20
1277;DHT22;631;51.024;13.826;2023-02-27T13:55:32;12.90;44.50
1277;DHT22;631;51.024;13.826;2023-02-27T13:58:02;13.30;42.90
1277;DHT22;631;51.024;13.826;2023-02-27T14:00:30;13.30;40.90
1277;DHT22;631;51.024;13.826;2023-02-27T14:03:25;12.80;42.60
1277;DHT22;631;51.024;13.826;2023-02-27T14:05:54;13.30;40.90
1277;DHT22;631;51.024;13.826;2023-02-27T14:08:25;13.30;40.90
1277;DHT22;631;51.024;13.826;2023-02-27T14:14:06;12.30;41.00
1277;DHT22;631;51.024;13.826;2023-02-27T14:21:57;10.50;46.80
1277;DHT22;631;51.024;13.826;2023-02-27T14:24:44;9.70;47.60
1277;DHT22;631;51.024;13.826;2023-02-27T14:27:29;9.20;49.60
1277;DHT22;631;51.024;13.826;2023-02-27T14:30:01;9.00;50.80
1277;DHT22;631;51.024;13.826;2023-02-27T14:32:34;8.70;53.40
1277;DHT22;631;51.024;13.826;2023-02-27T14:35:03;8.40;55.30
1277;DHT22;631;51.024;13.826;2023-02-27T14:37:30;8.20;54.20
1277;DHT22;631;51.024;13.826;2023-02-27T14:39:58;7.90;55.50
1277;DHT22;631;51.024;13.826;2023-02-27T14:45:19;7.80;57.20
1277;DHT22;631;51.024;13.826;2023-02-27T14:47:50;7.50;59.20
1277;DHT22;631;51.024;13.826;2023-02-27T14:50:31;7.20;61.10
1277;DHT22;631;51.024;13.826;2023-02-27T14:52:59;7.00;61.30
1277;DHT22;631;51.024;13.826;2023-02-27T14:55:34;6.80;66.60
1277;DHT22;631;51.024;13.826;2023-02-27T14:58:14;6.50;70.70
1277;DHT22;631;51.024;13.826;2023-02-27T15:03:23;6.10;71.00
1277;DHT22;631;51.024;13.826;2023-02-27T15:05:51;5.80;71.40
1277;DHT22;631;51.024;13.826;2023-02-27T15:08:25;5.70;76.70
1277;DHT22;631;51.024;13.826;2023-02-27T15:10:52;5.50;78.30
1277;DHT22;631;51.024;13.826;2023-02-27T15:15:50;5.20;78.70
1277;DHT22;631;51.024;13.826;2023-02-27T15:18:21;5.00;80.60
1277;DHT22;631;51.024;13.826;2023-02-27T15:20:56;4.80;84.60
1277;DHT22;631;51.024;13.826;2023-02-27T15:23:27;4.60;85.20
1277;DHT22;631;51.024;13.826;2023-02-27T15:25:57;4.50;90.20
1277;DHT22;631;51.024;13.826;2023-02-27T15:28:26;4.40;92.90
1277;DHT22;631;51.024;13.826;2023-02-27T15:30:54;4.30;93.50
1277;DHT22;631;51.024;13.826;2023-02-27T15:33:26;4.30;96.20
1277;DHT22;631;51.024;13.826;2023-02-27T15:35:52;4.10;97.90
1277;DHT22;631;51.024;13.826;2023-02-27T15:38:30;4.00;99.90
1277;DHT22;631;51.024;13.826;2023-02-27T15:40:57;3.90;99.90
1277;DHT22;631;51.024;13.826;2023-02-27T15:43:25;3.80;98.60
1277;DHT22;631;51.024;13.826;2023-02-27T15:45:52;3.70;97.00
1277;DHT22;631;51.024;13.826;2023-02-27T15:48:18;3.60;97.90
1277;DHT22;631;51.024;13.826;2023-02-27T15:50:52;3.60;99.90
1277;DHT22;631;51.024;13.826;2023-02-27T15:53:24;3.50;99.80
1277;DHT22;631;51.024;13.826;2023-02-27T15:55:51;3.60;99.90
1277;DHT22;631;51.024;13.826;2023-02-27T15:58:46;3.50;99.90
1277;DHT22;631;51.024;13.826;2023-02-27T16:01:18;3.50;99.90
1277;DHT22;631;51.024;13.826;2023-02-27T16:03:50;3.40;99.90
1277;DHT22;631;51.024;13.826;2023-02-27T16:08:52;3.30;99.90
1277;DHT22;631;51.024;13.826;2023-02-27T16:13:44;3.20;99.90
1277;DHT22;631;51.024;13.826;2023-02-27T16:19:12;3.10;99.90
1277;DHT22;631;51.024;13.826;2023-02-27T16:21:37;3.00;99.90
1277;DHT22;631;51.024;13.826;2023-02-27T16:24:30;3.00;99.90
1277;DHT22;631;51.024;13.826;2023-02-27T16:26:56;2.90;99.90
1277;DHT22;631;51.024;13.826;2023-02-27T16:29:33;2.80;99.90
1277;DHT22;631;51.024;13.826;2023-02-27T16:32:00;2.70;99.90
1277;DHT22;631;51.024;13.826;2023-02-27T16:34:33;2.70;99.90
1277;DHT22;631;51.024;13.826;2023-02-27T16:37:03;2.60;99.90
1277;DHT22;631;51.024;13.826;2023-02-27T16:39:31;2.60;99.90
1277;DHT22;631;51.024;13.826;2023-02-27T16:41:59;2.50;99.90
1277;DHT22;631;51.024;13.826;2023-02-27T16:44:26;2.50;99.90
1277;DHT22;631;51.024;13.826;2023-02-27T16:46:53;2.40;99.90
1277;DHT22;631;51.024;13.826;2023-02-27T16:49:24;2.40;99.90
1277;DHT22;631;51.024;13.826;2023-02-27T16:51:51;2.40;99.90
1277;DHT22;631;51.024;13.826;2023-02-27T16:54:17;2.30;99.90
1277;DHT22;631;51.024;13.826;2023-02-27T16:56:44;2.30;99.90
1277;DHT22;631;51.024;13.826;2023-02-27T16:59:37;2.30;99.90
1277;DHT22;631;51.024;13.826;2023-02-27T17:02:09;2.30;99.90
1277;DHT22;631;51.024;13.826;2023-02-27T17:04:35;2.30;99.90
1277;DHT22;631;51.024;13.826;2023-02-27T17:07:01;2.30;99.90
1277;DHT22;631;51.024;13.826;2023-02-27T17:09:28;2.30;99.90
1277;DHT22;631;51.024;13.826;2023-02-27T17:11:55;2.30;99.90
1277;DHT22;631;51.024;13.826;2023-02-27T17:14:22;2.30;99.90
1277;DHT22;631;51.024;13.826;2023-02-27T17:16:47;2.30;99.90
1277;DHT22;631;51.024;13.826;2023-02-27T17:19:13;2.20;99.90
1277;DHT22;631;51.024;13.826;2023-02-27T17:21:39;2.30;99.90
1277;DHT22;631;51.024;13.826;2023-02-27T17:24:05;2.30;99.90
1277;DHT22;631;51.024;13.826;2023-02-27T17:26:32;2.30;99.90
1277;DHT22;631;51.024;13.826;2023-02-27T17:28:58;2.30;99.90
1277;DHT22;631;51.024;13.826;2023-02-27T17:31:24;2.30;99.90
1277;DHT22;631;51.024;13.826;2023-02-27T17:33:51;2.30;99.90
1277;DHT22;631;51.024;13.826;2023-02-27T17:36:18;2.30;99.90
1277;DHT22;631;51.024;13.826;2023-02-27T17:38:44;2.30;99.90
1277;DHT22;631;51.024;13.826;2023-02-27T17:41:11;2.30;99.90
1277;DHT22;631;51.024;13.826;2023-02-27T17:43:37;2.30;99.90
1277;DHT22;631;51.024;13.826;2023-02-27T17:46:10;2.30;99.90
1277;DHT22;631;51.024;13.826;2023-02-27T17:48:37;2.30;99.90
1277;DHT22;631;51.024;13.826;2023-02-27T17:51:11;2.20;99.90
1277;DHT22;631;51.024;13.826;2023-02-27T17:53:38;2.30;99.90
1277;DHT22;631;51.024;13.826;2023-02-27T17:56:04;2.30;99.90
1277;DHT22;631;51.024;13.826;2023-02-27T17:58:31;2.20;99.90
1277;DHT22;631;51.024;13.826;2023-02-27T18:01:05;2.30;99.90
1277;DHT22;631;51.024;13.826;2023-02-27T18:03:31;2.20;99.90
1277;DHT22;631;51.024;13.826;2023-02-27T18:05:57;2.20;99.90
1277;DHT22;631;51.024;13.826;2023-02-27T18:08:22;2.30;99.90
1277;DHT22;631;51.024;13.826;2023-02-27T18:10:49;2.20;99.90
1277;DHT22;631;51.024;13.826;2023-02-27T18:13:16;2.20;99.90
1277;DHT22;631;51.024;13.826;2023-02-27T18:15:42;2.10;99.90
1277;DHT22;631;51.024;13.826;2023-02-27T18:18:08;2.10;99.90
1277;DHT22;631;51.024;13.826;2023-02-27T18:20:34;2.00;99.90
1277;DHT22;631;51.024;13.826;2023-02-27T18:23:00;2.00;99.90
1277;DHT22;631;51.024;13.826;2023-02-27T18:25:26;2.00;99.90
1277;DHT22;631;51.024;13.826;2023-02-27T18:27:53;2.10;99.90
1277;DHT22;631;51.024;13.826;2023-02-27T18:30:19;2.00;99.90
1277;DHT22;631;51.024;13.826;2023-02-27T18:32:45;2.00;99.90
1277;DHT22;631;51.024;13.826;2023-02-27T18:35:11;1.90;99.90
1277;DHT22;631;51.024;13.826;2023-02-27T18:37:37;1.90;99.90
1277;DHT22;631;51.024;13.826;2023-02-27T18:40:03;1.90;99.90
1277;DHT22;631;51.024;13.826;2023-02-27T18:42:30;1.90;99.90
1277;DHT22;631;51.024;13.826;2023-02-27T18:44:56;1.80;99.90
1277;DHT22;631;51.024;13.826;2023-02-27T18:47:21;1.80;99.90
1277;DHT22;631;51.024;13.826;2023-02-27T18:49:47;1.80;99.90
1277;DHT22;631;51.024;13.826;2023-02-27T18:52:13;1.80;99.90
1277;DHT22;631;51.024;13.826;2023-02-27T18:54:38;1.70;99.90
1277;DHT22;631;51.024;13.826;2023-02-27T18:57:05;1.80;99.90
1277;DHT22;631;51.024;13.826;2023-02-27T18:59:30;1.70;99.90
1277;DHT22;631;51.024;13.826;2023-02-27T19:01:56;1.70;99.90